KTLH/TLH METAR and TAF weather

Enter ICAO airport designator
Station Type Date Time Source
KTLH METAR 2022/07/03 14:53 UTC NOAA

KTLH 031453Z 31005KT 10SM FEW024TCU SCT050 BKN250 30/23 A3011 RMK AO2 SLP193 CB DSNT S-W TCU SE T03000228 50002


Station Type Date Time Source
KTLH Decoded METAR 2022/07/03 14:53 UTC NOAA

TALLAHASSEE REGIONAL AIRPORT , FL, United States (KTLH) 30-24N 84-21W 16M
Jul 03, 2022 - 10:53 AM EDT / 2022.07.03 1453 UTC
Wind: from the NW (310 degrees) at 6 MPH (5 KT):0
Visibility: 10 mile(s):0
Sky conditions: mostly cloudy
Weather: Cumulonimbus clouds, towering cumulus clouds observed
Temperature: 86.0 F (30.0 C)
Heat index: 93.0 F (33.9 C):1
Dew Point: 73.0 F (22.8 C)
Relative Humidity: 65%
Pressure (altimeter): 30.11 in. Hg (1019 hPa)
Pressure tendency: 0.01 inches (0.2 hPa) higher than three hours ago
ob: KTLH 031453Z 31005KT 10SM FEW024TCU SCT050 BKN250 30/23 A3011 RMK AO2 SLP193 CB DSNT S-W TCU SE T03000228 50002
cycle: 15

Station Type Date Time Source
KTLH TAF 2022/07/03 16:36 UTC NOAA

TAF
AMD KTLH 031533Z 0316/0412 31005KT P6SM VCTS FEW024CB SCT050 BKN250
FM031800 25005KT P6SM VCTS BKN040CB
TEMPO 0319/0322 -TSRA BKN030CB
FM040200 VRB03KT P6SM BKN100

Example: see airport list